sensor_id;sensor_type;location;lat;lon;timestamp;temperature;humidity
15983;DHT22;14442;50.196;8.096;2022-07-17T00:02:04;19.70;61.50
15983;DHT22;14442;50.196;8.096;2022-07-17T00:04:31;19.70;61.50
15983;DHT22;14442;50.196;8.096;2022-07-17T00:06:59;19.70;61.40
15983;DHT22;14442;50.196;8.096;2022-07-17T00:09:26;19.70;61.40
15983;DHT22;14442;50.196;8.096;2022-07-17T00:11:52;19.70;61.40
15983;DHT22;14442;50.196;8.096;2022-07-17T00:14:19;19.70;61.40
15983;DHT22;14442;50.196;8.096;2022-07-17T00:16:46;19.70;61.40
15983;DHT22;14442;50.196;8.096;2022-07-17T00:19:13;19.70;61.50
15983;DHT22;14442;50.196;8.096;2022-07-17T00:21:39;19.70;61.50
15983;DHT22;14442;50.196;8.096;2022-07-17T00:24:07;19.60;61.40
15983;DHT22;14442;50.196;8.096;2022-07-17T00:26:35;19.70;61.50
15983;DHT22;14442;50.196;8.096;2022-07-17T00:29:02;19.70;61.50
15983;DHT22;14442;50.196;8.096;2022-07-17T00:31:29;19.60;61.40
15983;DHT22;14442;50.196;8.096;2022-07-17T00:33:56;19.70;61.50
15983;DHT22;14442;50.196;8.096;2022-07-17T00:36:23;19.70;61.40
15983;DHT22;14442;50.196;8.096;2022-07-17T00:38:50;19.70;61.40
15983;DHT22;14442;50.196;8.096;2022-07-17T00:41:18;19.70;61.40
15983;DHT22;14442;50.196;8.096;2022-07-17T00:43:45;19.70;61.50
15983;DHT22;14442;50.196;8.096;2022-07-17T00:46:12;19.70;61.50
15983;DHT22;14442;50.196;8.096;2022-07-17T00:48:38;19.60;61.40
15983;DHT22;14442;50.196;8.096;2022-07-17T00:51:05;19.60;61.50
15983;DHT22;14442;50.196;8.096;2022-07-17T00:53:33;19.60;61.50
15983;DHT22;14442;50.196;8.096;2022-07-17T00:56:03;19.60;61.50
15983;DHT22;14442;50.196;8.096;2022-07-17T00:58:35;19.60;61.40
15983;DHT22;14442;50.196;8.096;2022-07-17T01:01:04;19.60;62.10
15983;DHT22;14442;50.196;8.096;2022-07-17T01:03:32;19.60;61.40
15983;DHT22;14442;50.196;8.096;2022-07-17T01:05:59;19.60;61.40
15983;DHT22;14442;50.196;8.096;2022-07-17T01:08:26;19.60;61.40
15983;DHT22;14442;50.196;8.096;2022-07-17T01:10:53;19.60;61.40
15983;DHT22;14442;50.196;8.096;2022-07-17T01:13:20;19.60;61.40
15983;DHT22;14442;50.196;8.096;2022-07-17T01:15:48;19.60;61.40
15983;DHT22;14442;50.196;8.096;2022-07-17T01:18:15;19.60;61.40
15983;DHT22;14442;50.196;8.096;2022-07-17T01:20:44;19.50;61.30
15983;DHT22;14442;50.196;8.096;2022-07-17T01:23:14;19.50;61.30
15983;DHT22;14442;50.196;8.096;2022-07-17T01:25:41;19.50;61.30
15983;DHT22;14442;50.196;8.096;2022-07-17T01:28:08;19.50;61.40
15983;DHT22;14442;50.196;8.096;2022-07-17T01:30:35;19.50;61.30
15983;DHT22;14442;50.196;8.096;2022-07-17T01:33:02;19.50;61.30
15983;DHT22;14442;50.196;8.096;2022-07-17T01:35:29;19.50;61.30
15983;DHT22;14442;50.196;8.096;2022-07-17T01:37:56;19.50;61.30
15983;DHT22;14442;50.196;8.096;2022-07-17T01:40:24;19.50;61.30
15983;DHT22;14442;50.196;8.096;2022-07-17T01:42:51;19.50;61.00
15983;DHT22;14442;50.196;8.096;2022-07-17T01:45:18;19.50;60.90
15983;DHT22;14442;50.196;8.096;2022-07-17T01:47:46;19.50;60.90
15983;DHT22;14442;50.196;8.096;2022-07-17T01:50:13;19.50;60.90
15983;DHT22;14442;50.196;8.096;2022-07-17T01:52:42;19.50;60.90
15983;DHT22;14442;50.196;8.096;2022-07-17T01:55:11;19.50;60.90
15983;DHT22;14442;50.196;8.096;2022-07-17T01:57:39;19.50;61.00
15983;DHT22;14442;50.196;8.096;2022-07-17T02:00:09;19.50;61.00
15983;DHT22;14442;50.196;8.096;2022-07-17T02:02:36;19.50;61.10
15983;DHT22;14442;50.196;8.096;2022-07-17T02:05:03;19.50;61.10
15983;DHT22;14442;50.196;8.096;2022-07-17T02:07:30;19.50;61.10
15983;DHT22;14442;50.196;8.096;2022-07-17T02:09:56;19.50;61.10
15983;DHT22;14442;50.196;8.096;2022-07-17T02:12:23;19.40;61.00
15983;DHT22;14442;50.196;8.096;2022-07-17T02:14:51;19.40;61.00
15983;DHT22;14442;50.196;8.096;2022-07-17T02:17:18;19.40;61.10
15983;DHT22;14442;50.196;8.096;2022-07-17T02:19:45;19.40;61.00
15983;DHT22;14442;50.196;8.096;2022-07-17T02:22:11;19.40;61.00
15983;DHT22;14442;50.196;8.096;2022-07-17T02:24:38;19.40;61.00
15983;DHT22;14442;50.196;8.096;2022-07-17T02:27:05;19.40;61.00
15983;DHT22;14442;50.196;8.096;2022-07-17T02:29:31;19.40;61.00
15983;DHT22;14442;50.196;8.096;2022-07-17T02:31:59;19.40;61.10
15983;DHT22;14442;50.196;8.096;2022-07-17T02:34:26;19.40;61.10
15983;DHT22;14442;50.196;8.096;2022-07-17T02:36:53;19.40;61.10
15983;DHT22;14442;50.196;8.096;2022-07-17T02:39:19;19.40;61.10
15983;DHT22;14442;50.196;8.096;2022-07-17T02:41:46;19.40;61.10
15983;DHT22;14442;50.196;8.096;2022-07-17T02:44:13;19.40;61.20
15983;DHT22;14442;50.196;8.096;2022-07-17T02:46:39;19.30;61.10
15983;DHT22;14442;50.196;8.096;2022-07-17T02:49:07;19.40;61.20
15983;DHT22;14442;50.196;8.096;2022-07-17T02:51:34;19.40;61.20
15983;DHT22;14442;50.196;8.096;2022-07-17T02:54:01;19.30;61.10
15983;DHT22;14442;50.196;8.096;2022-07-17T02:56:28;19.30;61.10
15983;DHT22;14442;50.196;8.096;2022-07-17T02:58:54;19.40;61.20
15983;DHT22;14442;50.196;8.096;2022-07-17T03:01:21;19.30;61.10
15983;DHT22;14442;50.196;8.096;2022-07-17T03:03:48;19.30;61.10
15983;DHT22;14442;50.196;8.096;2022-07-17T03:06:16;19.30;61.20
15983;DHT22;14442;50.196;8.096;2022-07-17T03:08:42;19.30;61.10
15983;DHT22;14442;50.196;8.096;2022-07-17T03:11:09;19.30;61.10
15983;DHT22;14442;50.196;8.096;2022-07-17T03:13:36;19.30;61.10
15983;DHT22;14442;50.196;8.096;2022-07-17T03:16:03;19.30;61.10
15983;DHT22;14442;50.196;8.096;2022-07-17T03:18:30;19.30;61.10
15983;DHT22;14442;50.196;8.096;2022-07-17T03:20:57;19.30;61.10
15983;DHT22;14442;50.196;8.096;2022-07-17T03:23:25;19.30;61.20
15983;DHT22;14442;50.196;8.096;2022-07-17T03:25:51;19.30;61.20
15983;DHT22;14442;50.196;8.096;2022-07-17T03:28:18;19.30;61.20
15983;DHT22;14442;50.196;8.096;2022-07-17T03:30:45;19.30;61.10
15983;DHT22;14442;50.196;8.096;2022-07-17T03:33:11;19.30;61.20
15983;DHT22;14442;50.196;8.096;2022-07-17T03:35:38;19.30;61.20
15983;DHT22;14442;50.196;8.096;2022-07-17T03:38:05;19.30;61.20
15983;DHT22;14442;50.196;8.096;2022-07-17T03:40:33;19.30;61.20
15983;DHT22;14442;50.196;8.096;2022-07-17T03:42:59;19.30;61.20
15983;DHT22;14442;50.196;8.096;2022-07-17T03:45:26;19.30;61.20
15983;DHT22;14442;50.196;8.096;2022-07-17T03:47:53;19.30;61.20
15983;DHT22;14442;50.196;8.096;2022-07-17T03:50:19;19.30;61.20
15983;DHT22;14442;50.196;8.096;2022-07-17T03:52:46;19.30;61.20
15983;DHT22;14442;50.196;8.096;2022-07-17T03:55:13;19.30;61.30
15983;DHT22;14442;50.196;8.096;2022-07-17T03:57:41;19.30;61.10
15983;DHT22;14442;50.196;8.096;2022-07-17T04:00:08;19.20;61.10
15983;DHT22;14442;50.196;8.096;2022-07-17T04:02:35;19.20;61.00
15983;DHT22;14442;50.196;8.096;2022-07-17T04:05:02;19.20;60.90
15983;DHT22;14442;50.196;8.096;2022-07-17T04:07:29;19.30;61.10
15983;DHT22;14442;50.196;8.096;2022-07-17T04:09:57;19.20;60.90
15983;DHT22;14442;50.196;8.096;2022-07-17T04:12:25;19.20;61.00
15983;DHT22;14442;50.196;8.096;2022-07-17T04:14:53;19.30;61.00
15983;DHT22;14442;50.196;8.096;2022-07-17T04:17:20;19.20;60.80
15983;DHT22;14442;50.196;8.096;2022-07-17T04:19:47;19.20;60.70
15983;DHT22;14442;50.196;8.096;2022-07-17T04:22:14;19.20;60.80
15983;DHT22;14442;50.196;8.096;2022-07-17T04:24:41;19.20;60.80
15983;DHT22;14442;50.196;8.096;2022-07-17T04:27:08;19.20;60.70
15983;DHT22;14442;50.196;8.096;2022-07-17T04:29:35;19.20;60.70
15983;DHT22;14442;50.196;8.096;2022-07-17T04:32:04;19.20;60.80
15983;DHT22;14442;50.196;8.096;2022-07-17T04:34:31;19.20;60.70
15983;DHT22;14442;50.196;8.096;2022-07-17T04:36:59;19.20;60.70
15983;DHT22;14442;50.196;8.096;2022-07-17T04:39:27;19.20;60.70
15983;DHT22;14442;50.196;8.096;2022-07-17T04:41:53;19.20;60.80
15983;DHT22;14442;50.196;8.096;2022-07-17T04:44:20;19.20;60.80
15983;DHT22;14442;50.196;8.096;2022-07-17T04:46:47;19.20;60.70
15983;DHT22;14442;50.196;8.096;2022-07-17T04:49:15;19.20;60.80
15983;DHT22;14442;50.196;8.096;2022-07-17T04:51:42;19.20;60.80
15983;DHT22;14442;50.196;8.096;2022-07-17T04:54:08;19.20;60.80
15983;DHT22;14442;50.196;8.096;2022-07-17T04:56:35;19.20;60.70
15983;DHT22;14442;50.196;8.096;2022-07-17T04:59:02;19.20;60.70
15983;DHT22;14442;50.196;8.096;2022-07-17T05:01:29;19.20;60.70
15983;DHT22;14442;50.196;8.096;2022-07-17T05:03:56;19.20;60.70
15983;DHT22;14442;50.196;8.096;2022-07-17T05:06:24;19.20;60.80
15983;DHT22;14442;50.196;8.096;2022-07-17T05:08:50;19.20;60.70
15983;DHT22;14442;50.196;8.096;2022-07-17T05:11:17;19.20;60.80
15983;DHT22;14442;50.196;8.096;2022-07-17T05:13:44;19.20;60.70
15983;DHT22;14442;50.196;8.096;2022-07-17T05:16:11;19.20;60.70
15983;DHT22;14442;50.196;8.096;2022-07-17T05:18:37;19.20;60.70
15983;DHT22;14442;50.196;8.096;2022-07-17T05:21:04;19.20;60.70
15983;DHT22;14442;50.196;8.096;2022-07-17T05:23:32;19.20;60.70
15983;DHT22;14442;50.196;8.096;2022-07-17T05:25:59;19.20;60.70
15983;DHT22;14442;50.196;8.096;2022-07-17T05:28:26;19.10;60.60
15983;DHT22;14442;50.196;8.096;2022-07-17T05:30:52;19.10;60.60
15983;DHT22;14442;50.196;8.096;2022-07-17T05:33:19;19.10;60.70
15983;DHT22;14442;50.196;8.096;2022-07-17T05:35:46;19.10;60.40
15983;DHT22;14442;50.196;8.096;2022-07-17T05:38:12;19.20;60.50
15983;DHT22;14442;50.196;8.096;2022-07-17T05:40:41;19.20;60.40
15983;DHT22;14442;50.196;8.096;2022-07-17T05:43:08;19.20;60.40
15983;DHT22;14442;50.196;8.096;2022-07-17T05:45:35;19.20;60.30
15983;DHT22;14442;50.196;8.096;2022-07-17T05:48:01;19.20;60.40
15983;DHT22;14442;50.196;8.096;2022-07-17T05:50:28;19.20;60.30
15983;DHT22;14442;50.196;8.096;2022-07-17T05:52:55;19.20;61.10
15983;DHT22;14442;50.196;8.096;2022-07-17T05:55:22;19.20;60.40
15983;DHT22;14442;50.196;8.096;2022-07-17T05:57:50;19.20;60.40
15983;DHT22;14442;50.196;8.096;2022-07-17T06:00:16;19.20;60.30
15983;DHT22;14442;50.196;8.096;2022-07-17T06:02:43;19.30;60.60
15983;DHT22;14442;50.196;8.096;2022-07-17T06:05:10;19.30;60.50
15983;DHT22;14442;50.196;8.096;2022-07-17T06:07:37;19.30;60.80
15983;DHT22;14442;50.196;8.096;2022-07-17T06:10:05;19.30;60.90
15983;DHT22;14442;50.196;8.096;2022-07-17T06:12:32;19.30;60.60
15983;DHT22;14442;50.196;8.096;2022-07-17T06:15:00;19.30;60.80
15983;DHT22;14442;50.196;8.096;2022-07-17T06:17:26;19.30;61.00
15983;DHT22;14442;50.196;8.096;2022-07-17T06:19:54;19.30;61.00
15983;DHT22;14442;50.196;8.096;2022-07-17T06:22:21;19.30;61.00
15983;DHT22;14442;50.196;8.096;2022-07-17T06:24:47;19.20;61.80
15983;DHT22;14442;50.196;8.096;2022-07-17T06:27:14;19.20;60.80
15983;DHT22;14442;50.196;8.096;2022-07-17T06:29:41;19.20;60.90
15983;DHT22;14442;50.196;8.096;2022-07-17T06:32:09;19.30;61.00
15983;DHT22;14442;50.196;8.096;2022-07-17T06:34:36;19.20;61.60
15983;DHT22;14442;50.196;8.096;2022-07-17T06:37:03;19.30;60.90
15983;DHT22;14442;50.196;8.096;2022-07-17T06:39:29;19.30;60.90
15983;DHT22;14442;50.196;8.096;2022-07-17T06:41:56;19.30;60.90
15983;DHT22;14442;50.196;8.096;2022-07-17T06:44:23;19.20;60.80
15983;DHT22;14442;50.196;8.096;2022-07-17T06:46:50;19.30;60.90
15983;DHT22;14442;50.196;8.096;2022-07-17T06:49:18;19.30;60.90
15983;DHT22;14442;50.196;8.096;2022-07-17T06:51:44;19.30;60.90
15983;DHT22;14442;50.196;8.096;2022-07-17T06:54:14;19.30;60.80
15983;DHT22;14442;50.196;8.096;2022-07-17T06:56:41;19.30;61.00
15983;DHT22;14442;50.196;8.096;2022-07-17T06:59:08;19.40;61.20
15983;DHT22;14442;50.196;8.096;2022-07-17T07:01:36;19.50;61.30
15983;DHT22;14442;50.196;8.096;2022-07-17T07:04:04;19.50;61.30
15983;DHT22;14442;50.196;8.096;2022-07-17T07:06:32;19.50;61.30
15983;DHT22;14442;50.196;8.096;2022-07-17T07:08:59;19.50;61.50
15983;DHT22;14442;50.196;8.096;2022-07-17T07:11:26;19.50;61.40
15983;DHT22;14442;50.196;8.096;2022-07-17T07:13:52;19.50;61.40
15983;DHT22;14442;50.196;8.096;2022-07-17T07:16:19;19.40;61.00
15983;DHT22;14442;50.196;8.096;2022-07-17T07:18:46;19.40;60.50
15983;DHT22;14442;50.196;8.096;2022-07-17T07:21:13;19.40;60.20
15983;DHT22;14442;50.196;8.096;2022-07-17T07:23:41;19.50;60.30
15983;DHT22;14442;50.196;8.096;2022-07-17T07:26:08;19.50;60.10
15983;DHT22;14442;50.196;8.096;2022-07-17T07:28:35;19.50;60.00
15983;DHT22;14442;50.196;8.096;2022-07-17T07:31:02;19.50;59.90
15983;DHT22;14442;50.196;8.096;2022-07-17T07:33:29;19.60;60.10
15983;DHT22;14442;50.196;8.096;2022-07-17T07:35:56;19.60;60.10
15983;DHT22;14442;50.196;8.096;2022-07-17T07:38:22;19.60;60.10
15983;DHT22;14442;50.196;8.096;2022-07-17T07:40:51;19.60;60.10
15983;DHT22;14442;50.196;8.096;2022-07-17T07:43:17;19.60;60.10
15983;DHT22;14442;50.196;8.096;2022-07-17T07:45:44;19.60;60.10
15983;DHT22;14442;50.196;8.096;2022-07-17T07:48:11;19.70;60.40
15983;DHT22;14442;50.196;8.096;2022-07-17T07:50:37;19.70;60.40
15983;DHT22;14442;50.196;8.096;2022-07-17T07:53:04;19.70;60.30
15983;DHT22;14442;50.196;8.096;2022-07-17T07:55:31;19.70;60.30
15983;DHT22;14442;50.196;8.096;2022-07-17T07:58:03;19.60;60.20
15983;DHT22;14442;50.196;8.096;2022-07-17T08:00:31;19.70;60.30
15983;DHT22;14442;50.196;8.096;2022-07-17T08:02:57;19.70;60.40
15983;DHT22;14442;50.196;8.096;2022-07-17T08:05:24;19.70;60.90
15983;DHT22;14442;50.196;8.096;2022-07-17T08:07:51;19.70;61.10
15983;DHT22;14442;50.196;8.096;2022-07-17T08:10:18;19.70;61.00
15983;DHT22;14442;50.196;8.096;2022-07-17T08:12:45;19.70;61.30
15983;DHT22;14442;50.196;8.096;2022-07-17T08:15:13;19.80;61.90
15983;DHT22;14442;50.196;8.096;2022-07-17T08:17:41;19.90;62.70
15983;DHT22;14442;50.196;8.096;2022-07-17T08:20:08;19.90;63.30
15983;DHT22;14442;50.196;8.096;2022-07-17T08:22:35;20.00;64.00
15983;DHT22;14442;50.196;8.096;2022-07-17T08:25:02;20.20;65.00
15983;DHT22;14442;50.196;8.096;2022-07-17T08:27:35;20.20;65.00
15983;DHT22;14442;50.196;8.096;2022-07-17T08:30:02;20.20;64.80
15983;DHT22;14442;50.196;8.096;2022-07-17T08:32:30;20.20;64.70
15983;DHT22;14442;50.196;8.096;2022-07-17T08:34:57;20.20;64.50
15983;DHT22;14442;50.196;8.096;2022-07-17T08:37:24;20.20;64.30
15983;DHT22;14442;50.196;8.096;2022-07-17T08:39:50;20.20;64.40
15983;DHT22;14442;50.196;8.096;2022-07-17T08:42:17;20.20;64.60
15983;DHT22;14442;50.196;8.096;2022-07-17T08:44:44;20.20;64.60
15983;DHT22;14442;50.196;8.096;2022-07-17T08:47:12;20.20;64.70
15983;DHT22;14442;50.196;8.096;2022-07-17T08:49:43;20.20;64.70
15983;DHT22;14442;50.196;8.096;2022-07-17T08:52:10;20.20;64.80
15983;DHT22;14442;50.196;8.096;2022-07-17T08:54:38;20.20;64.80
15983;DHT22;14442;50.196;8.096;2022-07-17T08:57:05;20.20;64.70
15983;DHT22;14442;50.196;8.096;2022-07-17T08:59:31;20.20;64.70
15983;DHT22;14442;50.196;8.096;2022-07-17T09:01:58;20.30;64.80
15983;DHT22;14442;50.196;8.096;2022-07-17T09:04:25;20.30;64.90
15983;DHT22;14442;50.196;8.096;2022-07-17T09:07:00;20.20;64.80
15983;DHT22;14442;50.196;8.096;2022-07-17T09:09:28;20.30;65.00
15983;DHT22;14442;50.196;8.096;2022-07-17T09:11:57;20.30;65.00
15983;DHT22;14442;50.196;8.096;2022-07-17T09:14:24;20.30;65.00
15983;DHT22;14442;50.196;8.096;2022-07-17T09:17:04;20.40;65.10
15983;DHT22;14442;50.196;8.096;2022-07-17T09:19:33;20.40;65.20
15983;DHT22;14442;50.196;8.096;2022-07-17T09:22:06;20.40;65.20
15983;DHT22;14442;50.196;8.096;2022-07-17T09:24:41;20.40;65.20
15983;DHT22;14442;50.196;8.096;2022-07-17T09:27:08;20.40;65.20
15983;DHT22;14442;50.196;8.096;2022-07-17T09:29:48;20.50;65.30
15983;DHT22;14442;50.196;8.096;2022-07-17T09:32:16;20.50;65.30
15983;DHT22;14442;50.196;8.096;2022-07-17T09:34:44;20.50;65.20
15983;DHT22;14442;50.196;8.096;2022-07-17T09:37:13;20.40;65.20
15983;DHT22;14442;50.196;8.096;2022-07-17T09:39:40;20.50;65.30
15983;DHT22;14442;50.196;8.096;2022-07-17T09:42:07;20.50;65.20
15983;DHT22;14442;50.196;8.096;2022-07-17T09:44:34;20.60;65.30
15983;DHT22;14442;50.196;8.096;2022-07-17T09:47:01;20.50;65.10
15983;DHT22;14442;50.196;8.096;2022-07-17T09:49:28;20.50;65.10
15983;DHT22;14442;50.196;8.096;2022-07-17T09:51:57;20.50;65.10
15983;DHT22;14442;50.196;8.096;2022-07-17T09:54:28;20.50;65.10
15983;DHT22;14442;50.196;8.096;2022-07-17T09:56:58;20.50;64.80
15983;DHT22;14442;50.196;8.096;2022-07-17T09:59:26;20.50;64.50
15983;DHT22;14442;50.196;8.096;2022-07-17T10:01:55;20.50;64.50
15983;DHT22;14442;50.196;8.096;2022-07-17T10:04:22;20.60;64.30
15983;DHT22;14442;50.196;8.096;2022-07-17T10:06:49;20.60;64.60
15983;DHT22;14442;50.196;8.096;2022-07-17T10:09:17;20.60;64.00
15983;DHT22;14442;50.196;8.096;2022-07-17T10:11:45;20.60;64.20
15983;DHT22;14442;50.196;8.096;2022-07-17T10:14:13;20.50;64.40
15983;DHT22;14442;50.196;8.096;2022-07-17T10:16:41;20.60;64.30
15983;DHT22;14442;50.196;8.096;2022-07-17T10:19:18;20.60;63.90
15983;DHT22;14442;50.196;8.096;2022-07-17T10:21:54;20.60;63.90
15983;DHT22;14442;50.196;8.096;2022-07-17T10:24:22;20.60;63.80
15983;DHT22;14442;50.196;8.096;2022-07-17T10:26:50;20.60;63.60
15983;DHT22;14442;50.196;8.096;2022-07-17T10:29:28;20.60;63.80
15983;DHT22;14442;50.196;8.096;2022-07-17T10:31:55;20.60;63.90
15983;DHT22;14442;50.196;8.096;2022-07-17T10:34:36;20.60;63.80
15983;DHT22;14442;50.196;8.096;2022-07-17T10:37:14;20.70;63.90
15983;DHT22;14442;50.196;8.096;2022-07-17T10:39:52;20.70;63.90
15983;DHT22;14442;50.196;8.096;2022-07-17T10:42:39;20.70;63.80
15983;DHT22;14442;50.196;8.096;2022-07-17T10:45:07;20.60;63.50
15983;DHT22;14442;50.196;8.096;2022-07-17T10:47:49;20.70;63.50
15983;DHT22;14442;50.196;8.096;2022-07-17T10:50:17;20.60;63.30
15983;DHT22;14442;50.196;8.096;2022-07-17T10:52:45;20.70;63.20
15983;DHT22;14442;50.196;8.096;2022-07-17T10:55:22;20.60;63.10
15983;DHT22;14442;50.196;8.096;2022-07-17T10:57:50;20.70;63.00
15983;DHT22;14442;50.196;8.096;2022-07-17T11:00:17;20.70;62.90
15983;DHT22;14442;50.196;8.096;2022-07-17T11:02:44;20.70;62.80
15983;DHT22;14442;50.196;8.096;2022-07-17T11:05:13;20.70;62.90
15983;DHT22;14442;50.196;8.096;2022-07-17T11:07:55;20.70;62.90
15983;DHT22;14442;50.196;8.096;2022-07-17T11:10:23;20.80;63.00
15983;DHT22;14442;50.196;8.096;2022-07-17T11:12:53;20.80;63.10
15983;DHT22;14442;50.196;8.096;2022-07-17T11:15:20;20.80;62.90
15983;DHT22;14442;50.196;8.096;2022-07-17T11:17:48;20.80;63.60
15983;DHT22;14442;50.196;8.096;2022-07-17T11:20:16;20.80;62.80
15983;DHT22;14442;50.196;8.096;2022-07-17T11:22:43;20.80;62.80
15983;DHT22;14442;50.196;8.096;2022-07-17T11:25:10;20.80;62.90
15983;DHT22;14442;50.196;8.096;2022-07-17T11:27:37;20.90;63.00
15983;DHT22;14442;50.196;8.096;2022-07-17T11:30:11;20.90;63.10
15983;DHT22;14442;50.196;8.096;2022-07-17T11:32:39;20.90;62.90
15983;DHT22;14442;50.196;8.096;2022-07-17T11:35:17;21.00;62.60
15983;DHT22;14442;50.196;8.096;2022-07-17T11:37:45;20.90;62.50
15983;DHT22;14442;50.196;8.096;2022-07-17T11:40:11;20.90;62.50
15983;DHT22;14442;50.196;8.096;2022-07-17T11:42:38;20.90;62.10
15983;DHT22;14442;50.196;8.096;2022-07-17T11:45:08;20.90;62.30
15983;DHT22;14442;50.196;8.096;2022-07-17T11:47:35;20.90;62.30
15983;DHT22;14442;50.196;8.096;2022-07-17T11:50:08;20.90;62.40
15983;DHT22;14442;50.196;8.096;2022-07-17T11:52:43;21.00;62.40
15983;DHT22;14442;50.196;8.096;2022-07-17T11:55:10;21.00;62.40
15983;DHT22;14442;50.196;8.096;2022-07-17T11:57:45;21.00;62.50
15983;DHT22;14442;50.196;8.096;2022-07-17T12:00:17;21.00;62.60
15983;DHT22;14442;50.196;8.096;2022-07-17T12:02:44;21.00;62.50
15983;DHT22;14442;50.196;8.096;2022-07-17T12:05:11;21.00;62.60
15983;DHT22;14442;50.196;8.096;2022-07-17T12:07:43;21.00;62.60
15983;DHT22;14442;50.196;8.096;2022-07-17T12:10:14;21.00;62.70
15983;DHT22;14442;50.196;8.096;2022-07-17T12:12:53;21.00;62.70
15983;DHT22;14442;50.196;8.096;2022-07-17T12:15:34;21.10;63.00
15983;DHT22;14442;50.196;8.096;2022-07-17T12:18:01;21.10;63.10
15983;DHT22;14442;50.196;8.096;2022-07-17T12:20:41;21.10;62.90
15983;DHT22;14442;50.196;8.096;2022-07-17T12:23:08;21.10;63.00
15983;DHT22;14442;50.196;8.096;2022-07-17T12:25:35;21.20;63.40
15983;DHT22;14442;50.196;8.096;2022-07-17T12:28:02;21.20;63.40
15983;DHT22;14442;50.196;8.096;2022-07-17T12:30:30;21.30;67.80
15983;DHT22;14442;50.196;8.096;2022-07-17T12:32:58;21.30;68.80
15983;DHT22;14442;50.196;8.096;2022-07-17T12:35:24;21.30;66.90
15983;DHT22;14442;50.196;8.096;2022-07-17T12:37:51;21.30;64.90
15983;DHT22;14442;50.196;8.096;2022-07-17T12:40:18;21.30;64.20
15983;DHT22;14442;50.196;8.096;2022-07-17T12:42:44;21.30;64.30
15983;DHT22;14442;50.196;8.096;2022-07-17T12:45:11;21.40;64.20
15983;DHT22;14442;50.196;8.096;2022-07-17T12:47:39;21.40;64.00
15983;DHT22;14442;50.196;8.096;2022-07-17T12:50:07;21.40;63.90
15983;DHT22;14442;50.196;8.096;2022-07-17T12:52:34;21.40;63.90
15983;DHT22;14442;50.196;8.096;2022-07-17T12:55:01;21.50;64.40
15983;DHT22;14442;50.196;8.096;2022-07-17T12:57:27;21.50;63.80
15983;DHT22;14442;50.196;8.096;2022-07-17T12:59:54;21.60;63.70
15983;DHT22;14442;50.196;8.096;2022-07-17T13:02:21;21.60;63.50
15983;DHT22;14442;50.196;8.096;2022-07-17T13:04:50;21.60;63.30
15983;DHT22;14442;50.196;8.096;2022-07-17T13:07:17;21.60;63.20
15983;DHT22;14442;50.196;8.096;2022-07-17T13:09:44;21.70;63.10
15983;DHT22;14442;50.196;8.096;2022-07-17T13:12:10;21.70;63.00
15983;DHT22;14442;50.196;8.096;2022-07-17T13:14:37;21.70;63.30
15983;DHT22;14442;50.196;8.096;2022-07-17T13:17:04;21.70;63.10
15983;DHT22;14442;50.196;8.096;2022-07-17T13:19:30;21.80;62.80
15983;DHT22;14442;50.196;8.096;2022-07-17T13:22:00;21.80;62.40
15983;DHT22;14442;50.196;8.096;2022-07-17T13:24:29;21.80;62.40
15983;DHT22;14442;50.196;8.096;2022-07-17T13:26:55;21.80;62.30
15983;DHT22;14442;50.196;8.096;2022-07-17T13:29:22;21.80;62.00
15983;DHT22;14442;50.196;8.096;2022-07-17T13:31:51;21.90;62.00
15983;DHT22;14442;50.196;8.096;2022-07-17T13:34:18;21.90;62.00
15983;DHT22;14442;50.196;8.096;2022-07-17T13:36:45;21.90;61.80
15983;DHT22;14442;50.196;8.096;2022-07-17T13:39:13;21.90;61.70
15983;DHT22;14442;50.196;8.096;2022-07-17T13:41:40;21.90;61.60
15983;DHT22;14442;50.196;8.096;2022-07-17T13:44:07;22.00;61.50
15983;DHT22;14442;50.196;8.096;2022-07-17T13:46:34;21.90;61.10
15983;DHT22;14442;50.196;8.096;2022-07-17T13:49:01;22.00;61.10
15983;DHT22;14442;50.196;8.096;2022-07-17T13:51:28;22.00;61.30
15983;DHT22;14442;50.196;8.096;2022-07-17T13:53:56;22.20;60.90
15983;DHT22;14442;50.196;8.096;2022-07-17T13:56:24;22.30;60.90
15983;DHT22;14442;50.196;8.096;2022-07-17T13:58:51;22.30;60.60
15983;DHT22;14442;50.196;8.096;2022-07-17T14:01:18;22.30;60.10
15983;DHT22;14442;50.196;8.096;2022-07-17T14:03:45;22.30;60.10
15983;DHT22;14442;50.196;8.096;2022-07-17T14:06:11;22.20;59.90
15983;DHT22;14442;50.196;8.096;2022-07-17T14:08:39;22.20;59.60
15983;DHT22;14442;50.196;8.096;2022-07-17T14:11:06;22.20;59.70
15983;DHT22;14442;50.196;8.096;2022-07-17T14:13:34;22.20;59.60
15983;DHT22;14442;50.196;8.096;2022-07-17T14:16:01;22.30;59.80
15983;DHT22;14442;50.196;8.096;2022-07-17T14:18:28;22.30;59.60
15983;DHT22;14442;50.196;8.096;2022-07-17T14:20:54;22.20;59.40
15983;DHT22;14442;50.196;8.096;2022-07-17T14:23:21;22.20;59.30
15983;DHT22;14442;50.196;8.096;2022-07-17T14:25:48;22.20;59.70
15983;DHT22;14442;50.196;8.096;2022-07-17T14:28:14;22.30;59.70
15983;DHT22;14442;50.196;8.096;2022-07-17T14:30:43;22.30;59.70
15983;DHT22;14442;50.196;8.096;2022-07-17T14:33:09;22.30;59.70
15983;DHT22;14442;50.196;8.096;2022-07-17T14:35:36;22.30;59.70
15983;DHT22;14442;50.196;8.096;2022-07-17T14:38:03;22.30;59.50
15983;DHT22;14442;50.196;8.096;2022-07-17T14:40:31;22.30;59.40
15983;DHT22;14442;50.196;8.096;2022-07-17T14:42:58;22.30;59.40
15983;DHT22;14442;50.196;8.096;2022-07-17T14:45:25;22.30;59.50
15983;DHT22;14442;50.196;8.096;2022-07-17T14:47:53;22.40;59.90
15983;DHT22;14442;50.196;8.096;2022-07-17T14:50:20;22.40;59.90
15983;DHT22;14442;50.196;8.096;2022-07-17T14:52:47;22.40;59.70
15983;DHT22;14442;50.196;8.096;2022-07-17T14:55:13;22.40;59.90
15983;DHT22;14442;50.196;8.096;2022-07-17T14:57:40;22.40;59.60
15983;DHT22;14442;50.196;8.096;2022-07-17T15:00:08;22.40;59.70
15983;DHT22;14442;50.196;8.096;2022-07-17T15:02:35;22.40;59.90
15983;DHT22;14442;50.196;8.096;2022-07-17T15:05:04;22.40;59.60
15983;DHT22;14442;50.196;8.096;2022-07-17T15:07:31;22.40;59.60
15983;DHT22;14442;50.196;8.096;2022-07-17T15:09:58;22.40;59.60
15983;DHT22;14442;50.196;8.096;2022-07-17T15:12:25;22.50;59.60
15983;DHT22;14442;50.196;8.096;2022-07-17T15:14:51;22.50;59.60
15983;DHT22;14442;50.196;8.096;2022-07-17T15:17:18;22.40;59.40
15983;DHT22;14442;50.196;8.096;2022-07-17T15:19:45;22.50;59.30
15983;DHT22;14442;50.196;8.096;2022-07-17T15:22:13;22.40;59.20
15983;DHT22;14442;50.196;8.096;2022-07-17T15:24:40;22.40;59.70
15983;DHT22;14442;50.196;8.096;2022-07-17T15:27:06;22.40;59.90
15983;DHT22;14442;50.196;8.096;2022-07-17T15:29:33;22.40;59.90
15983;DHT22;14442;50.196;8.096;2022-07-17T15:32:00;22.40;59.90
15983;DHT22;14442;50.196;8.096;2022-07-17T15:34:27;22.40;59.60